createdAt,value
2016-12-04T00:00:05.225Z,73541
2016-12-04T00:00:13.972Z,73543
2016-12-04T00:00:22.698Z,73544
2016-12-04T00:00:31.467Z,73542
2016-12-04T00:00:40.179Z,73544
2016-12-04T00:00:48.854Z,73547
2016-12-04T00:00:57.534Z,73541
2016-12-04T00:01:06.244Z,73547
2016-12-04T00:01:14.969Z,73546
2016-12-04T00:01:23.677Z,73545
2016-12-04T00:01:32.425Z,73544
2016-12-04T00:01:41.102Z,73545
2016-12-04T00:01:49.803Z,73547
2016-12-04T00:01:58.804Z,73546
2016-12-04T00:02:07.546Z,73544
2016-12-04T00:02:16.265Z,73540
2016-12-04T00:02:24.973Z,73548
2016-12-04T00:02:33.692Z,73547
2016-12-04T00:02:42.424Z,73544
2016-12-04T00:02:51.186Z,73545
2016-12-04T00:02:59.866Z,73547
2016-12-04T00:03:08.589Z,73548
2016-12-04T00:03:17.335Z,73545
2016-12-04T00:03:26.047Z,73545
2016-12-04T00:03:34.765Z,73547
2016-12-04T00:03:43.470Z,73547
2016-12-04T00:03:52.197Z,73547
2016-12-04T00:04:00.875Z,73543
2016-12-04T00:04:09.606Z,73546
2016-12-04T00:04:18.330Z,73551
2016-12-04T00:04:27.370Z,73548
2016-12-04T00:04:36.094Z,73549
2016-12-04T00:04:44.821Z,73548
2016-12-04T00:04:53.544Z,73551
2016-12-04T00:05:02.253Z,73550
2016-12-04T00:05:10.950Z,73546
2016-12-04T00:05:19.677Z,73549
2016-12-04T00:05:28.412Z,73554
2016-12-04T00:05:37.174Z,73551
2016-12-04T00:05:45.877Z,73554
2016-12-04T00:05:54.579Z,73551
2016-12-04T00:06:03.269Z,73549
2016-12-04T00:06:12.011Z,73549
2016-12-04T00:06:20.774Z,73555
2016-12-04T00:06:29.506Z,73551
2016-12-04T00:06:38.235Z,73551
2016-12-04T00:06:46.955Z,73551
2016-12-04T00:06:55.660Z,73550
2016-12-04T00:07:04.326Z,73550
2016-12-04T00:07:13.064Z,73552
2016-12-04T00:07:21.767Z,73551
2016-12-04T00:07:30.455Z,73553
2016-12-04T00:07:39.137Z,73552
2016-12-04T00:07:47.801Z,73549
2016-12-04T00:07:56.502Z,73547
2016-12-04T00:08:05.217Z,73549
2016-12-04T00:08:13.929Z,73551
2016-12-04T00:08:22.649Z,73552
2016-12-04T00:08:31.363Z,73551
2016-12-04T00:08:40.084Z,73545
2016-12-04T00:08:48.834Z,73553
2016-12-04T00:08:57.535Z,73548
2016-12-04T00:09:06.272Z,73552
2016-12-04T00:09:15.003Z,73549
2016-12-04T00:09:23.718Z,73548
2016-12-04T00:09:32.444Z,73551
2016-12-04T00:09:41.126Z,73548
2016-12-04T00:09:49.845Z,73551
2016-12-04T00:09:58.533Z,73548
2016-12-04T00:10:07.771Z,73548
2016-12-04T00:10:16.504Z,73550
2016-12-04T00:10:25.188Z,73549
2016-12-04T00:10:33.857Z,73550
2016-12-04T00:10:42.830Z,73552
2016-12-04T00:10:51.539Z,73552
2016-12-04T00:11:00.238Z,73549
2016-12-04T00:11:08.973Z,73551
2016-12-04T00:11:17.697Z,73552
2016-12-04T00:11:26.397Z,73550
2016-12-04T00:11:35.128Z,73553
2016-12-04T00:11:43.893Z,73549
2016-12-04T00:11:52.618Z,73548
2016-12-04T00:12:01.382Z,73552
2016-12-04T00:12:10.116Z,73551
2016-12-04T00:12:18.838Z,73546
2016-12-04T00:12:27.579Z,73550
2016-12-04T00:12:36.268Z,73549
2016-12-04T00:12:44.989Z,73549
2016-12-04T00:12:53.685Z,73545
2016-12-04T00:13:02.377Z,73553
2016-12-04T00:13:11.078Z,73547
2016-12-04T00:13:19.771Z,73547
2016-12-04T00:13:28.463Z,73552
2016-12-04T00:13:37.161Z,73552
2016-12-04T00:13:45.895Z,73546
2016-12-04T00:13:54.888Z,73551
2016-12-04T00:14:03.591Z,73553
2016-12-04T00:14:12.321Z,73548
2016-12-04T00:14:21.021Z,73552
2016-12-04T00:14:29.731Z,73551
2016-12-04T00:14:38.443Z,73553
2016-12-04T00:14:47.180Z,73555
2016-12-04T00:14:55.924Z,73550
2016-12-04T00:15:04.629Z,73551
2016-12-04T00:15:13.359Z,73553
2016-12-04T00:15:22.051Z,73550
2016-12-04T00:15:31.047Z,73552
2016-12-04T00:15:39.733Z,73555
2016-12-04T00:15:48.468Z,73550
2016-12-04T00:15:57.153Z,73554
2016-12-04T00:16:05.903Z,73557
2016-12-04T00:16:14.639Z,73554
2016-12-04T00:16:23.334Z,73552
2016-12-04T00:16:32.076Z,73556
2016-12-04T00:16:40.787Z,73558
2016-12-04T00:16:49.776Z,73556
2016-12-04T00:16:58.494Z,73556
2016-12-04T00:17:07.222Z,73557
2016-12-04T00:17:15.933Z,73554
2016-12-04T00:17:24.613Z,73558
2016-12-04T00:17:33.369Z,73554
2016-12-04T00:17:42.068Z,73558
2016-12-04T00:17:50.753Z,73557
2016-12-04T00:17:59.471Z,73557
2016-12-04T00:18:08.203Z,73553
2016-12-04T00:18:16.920Z,73551
2016-12-04T00:18:25.624Z,73550
2016-12-04T00:18:34.295Z,73552
2016-12-04T00:18:42.985Z,73552
2016-12-04T00:18:51.696Z,73551
2016-12-04T00:19:00.671Z,73551
2016-12-04T00:19:09.393Z,73553
2016-12-04T00:19:18.159Z,73548
2016-12-04T00:19:26.874Z,73554
2016-12-04T00:19:35.576Z,73549
2016-12-04T00:19:44.282Z,73547
2016-12-04T00:19:53.017Z,73551
2016-12-04T00:20:01.754Z,73554
2016-12-04T00:20:10.504Z,73554
2016-12-04T00:20:19.207Z,73552
2016-12-04T00:20:27.939Z,73548
2016-12-04T00:20:36.679Z,73549
2016-12-04T00:20:45.378Z,73553
2016-12-04T00:20:54.080Z,73554
2016-12-04T00:21:02.804Z,73552
2016-12-04T00:21:11.494Z,73554
2016-12-04T00:21:20.206Z,73552
2016-12-04T00:21:28.867Z,73552
2016-12-04T00:21:37.596Z,73552
2016-12-04T00:21:46.316Z,73551
2016-12-04T00:21:55.059Z,73556
2016-12-04T00:22:03.749Z,73553
2016-12-04T00:22:12.742Z,73558
2016-12-04T00:22:21.461Z,73556
2016-12-04T00:22:30.185Z,73555
2016-12-04T00:22:38.896Z,73550
2016-12-04T00:22:47.657Z,73555
2016-12-04T00:22:56.383Z,73553
2016-12-04T00:23:05.081Z,73554
2016-12-04T00:23:13.793Z,73554
2016-12-04T00:23:22.533Z,73555
2016-12-04T00:23:31.256Z,73555
2016-12-04T00:23:39.963Z,73554
2016-12-04T00:23:48.722Z,73555
2016-12-04T00:23:57.411Z,73555
2016-12-04T00:24:06.127Z,73553
2016-12-04T00:24:15.140Z,73555
2016-12-04T00:24:23.884Z,73552
2016-12-04T00:24:32.587Z,73551
2016-12-04T00:24:41.268Z,73554
2016-12-04T00:24:49.975Z,73556
2016-12-04T00:24:58.694Z,73558
2016-12-04T00:25:07.396Z,73560
2016-12-04T00:25:16.098Z,73553
2016-12-04T00:25:24.789Z,73554
2016-12-04T00:25:33.490Z,73552
2016-12-04T00:25:42.190Z,73552
2016-12-04T00:25:50.915Z,73555
2016-12-04T00:25:59.623Z,73550
2016-12-04T00:26:08.346Z,73549
2016-12-04T00:26:17.054Z,73550
2016-12-04T00:26:25.741Z,73551
2016-12-04T00:26:34.457Z,73549
2016-12-04T00:26:43.456Z,73548
2016-12-04T00:26:52.151Z,73549
2016-12-04T00:27:00.851Z,73552
2016-12-04T00:27:09.562Z,73554
2016-12-04T00:27:18.257Z,73553
2016-12-04T00:27:26.947Z,73554
2016-12-04T00:27:35.673Z,73555
2016-12-04T00:27:44.375Z,73557
2016-12-04T00:27:53.110Z,73556
2016-12-04T00:28:01.814Z,73557
2016-12-04T00:28:10.523Z,73553
2016-12-04T00:28:19.270Z,73550
2016-12-04T00:28:27.958Z,73554
2016-12-04T00:28:36.677Z,73554
2016-12-04T00:28:45.407Z,73552
2016-12-04T00:28:54.151Z,73549
2016-12-04T00:29:02.877Z,73552
2016-12-04T00:29:11.574Z,73555
2016-12-04T00:29:20.239Z,73547
2016-12-04T00:29:28.938Z,73553
2016-12-04T00:29:37.639Z,73551
2016-12-04T00:29:46.366Z,73553
2016-12-04T00:29:55.099Z,73554
2016-12-04T00:30:03.820Z,73558
2016-12-04T00:30:12.508Z,73554
2016-12-04T00:30:21.222Z,73555
2016-12-04T00:30:29.930Z,73551
2016-12-04T00:30:38.705Z,73554
2016-12-04T00:30:47.424Z,73556
2016-12-04T00:30:56.130Z,73550
2016-12-04T00:31:04.793Z,73554
2016-12-04T00:31:13.544Z,73553
2016-12-04T00:31:22.257Z,73554
2016-12-04T00:31:30.938Z,73555
2016-12-04T00:31:39.650Z,73556
2016-12-04T00:31:48.376Z,73553
2016-12-04T00:31:57.098Z,73553
2016-12-04T00:32:05.810Z,73552
2016-12-04T00:32:14.551Z,73551
2016-12-04T00:32:23.273Z,73556
2016-12-04T00:32:31.978Z,73558
2016-12-04T00:32:40.684Z,73557
2016-12-04T00:32:49.447Z,73557
2016-12-04T00:32:58.154Z,73550
2016-12-04T00:33:06.843Z,73554
2016-12-04T00:33:15.571Z,73550
2016-12-04T00:33:24.275Z,73558
2016-12-04T00:33:32.993Z,73556
2016-12-04T00:33:41.700Z,73554
2016-12-04T00:33:50.451Z,73558
2016-12-04T00:33:59.194Z,73550
2016-12-04T00:34:08.203Z,73550
2016-12-04T00:34:16.941Z,73554
2016-12-04T00:34:25.663Z,73554
2016-12-04T00:34:34.388Z,73557
2016-12-04T00:34:43.105Z,73559
2016-12-04T00:34:51.790Z,73558
2016-12-04T00:35:00.512Z,73550
2016-12-04T00:35:09.228Z,73557
2016-12-04T00:35:17.916Z,73555
2016-12-04T00:35:26.620Z,73556
2016-12-04T00:35:35.338Z,73552
2016-12-04T00:35:44.067Z,73554
2016-12-04T00:35:53.084Z,73559
2016-12-04T00:36:02.057Z,73562
2016-12-04T00:36:10.766Z,73557
2016-12-04T00:36:19.512Z,73554
2016-12-04T00:36:28.235Z,73552
2016-12-04T00:36:36.932Z,73557
2016-12-04T00:36:45.653Z,73555
2016-12-04T00:36:54.335Z,73554
2016-12-04T00:37:03.067Z,73557
2016-12-04T00:37:11.804Z,73558
2016-12-04T00:37:20.509Z,73561
2016-12-04T00:37:29.174Z,73561
2016-12-04T00:37:37.873Z,73560
2016-12-04T00:37:46.883Z,73560
2016-12-04T00:37:55.582Z,73557
2016-12-04T00:38:04.285Z,73560
2016-12-04T00:38:13.064Z,73554
2016-12-04T00:38:21.818Z,73557
2016-12-04T00:38:30.571Z,73561
2016-12-04T00:38:39.290Z,73559
2016-12-04T00:38:47.992Z,73560
2016-12-04T00:38:56.694Z,73560
2016-12-04T00:39:05.419Z,73559
2016-12-04T00:39:14.169Z,73559
2016-12-04T00:39:22.892Z,73558
2016-12-04T00:39:31.603Z,73560
2016-12-04T00:39:40.309Z,73556
2016-12-04T00:39:49.035Z,73558
2016-12-04T00:39:57.743Z,73557
2016-12-04T00:40:06.471Z,73558
2016-12-04T00:40:15.210Z,73559
2016-12-04T00:40:23.919Z,73563
2016-12-04T00:40:32.614Z,73562
2016-12-04T00:40:41.315Z,73556
2016-12-04T00:40:49.987Z,73562
2016-12-04T00:40:58.708Z,73561
2016-12-04T00:41:07.406Z,73562
2016-12-04T00:41:16.096Z,73560
2016-12-04T00:41:24.840Z,73560
2016-12-04T00:41:33.572Z,73561
2016-12-04T00:41:42.239Z,73562
2016-12-04T00:41:50.976Z,73563
2016-12-04T00:41:59.716Z,73560
2016-12-04T00:42:08.400Z,73560
2016-12-04T00:42:17.133Z,73562
2016-12-04T00:42:25.875Z,73564
2016-12-04T00:42:34.572Z,73564
2016-12-04T00:42:43.283Z,73561
2016-12-04T00:42:52.035Z,73560
2016-12-04T00:43:00.759Z,73563
2016-12-04T00:43:09.634Z,73562
2016-12-04T00:43:18.340Z,73562
2016-12-04T00:43:27.043Z,73565
2016-12-04T00:43:35.725Z,73562
2016-12-04T00:43:44.444Z,73562
2016-12-04T00:43:53.126Z,73564
2016-12-04T00:44:01.790Z,73562
2016-12-04T00:44:10.476Z,73561
2016-12-04T00:44:19.189Z,73561
2016-12-04T00:44:27.894Z,73557
2016-12-04T00:44:36.603Z,73562
2016-12-04T00:44:45.304Z,73563
2016-12-04T00:44:54.025Z,73561
2016-12-04T00:45:02.707Z,73559
2016-12-04T00:45:11.410Z,73561
2016-12-04T00:45:20.090Z,73563
2016-12-04T00:45:28.805Z,73563
2016-12-04T00:45:37.519Z,73564
2016-12-04T00:45:46.242Z,73562
2016-12-04T00:45:54.995Z,73559
2016-12-04T00:46:03.775Z,73562
2016-12-04T00:46:12.478Z,73558
2016-12-04T00:46:21.195Z,73560
2016-12-04T00:46:29.905Z,73563
2016-12-04T00:46:38.644Z,73558
2016-12-04T00:46:47.343Z,73564
2016-12-04T00:46:56.050Z,73554
2016-12-04T00:47:04.794Z,73561
2016-12-04T00:47:13.501Z,73563
2016-12-04T00:47:22.203Z,73561
2016-12-04T00:47:30.907Z,73561
2016-12-04T00:47:39.592Z,73561
2016-12-04T00:47:48.299Z,73564
2016-12-04T00:47:57.027Z,73560
2016-12-04T00:48:05.755Z,73556
2016-12-04T00:48:14.483Z,73565
2016-12-04T00:48:23.208Z,73563
2016-12-04T00:48:31.933Z,73565
2016-12-04T00:48:40.619Z,73564
2016-12-04T00:48:49.281Z,73559
2016-12-04T00:48:57.983Z,73563
2016-12-04T00:49:06.652Z,73562
2016-12-04T00:49:15.374Z,73562
2016-12-04T00:49:24.122Z,73562
2016-12-04T00:49:32.837Z,73559
2016-12-04T00:49:41.565Z,73563
2016-12-04T00:49:50.284Z,73558
2016-12-04T00:49:59.045Z,73560
2016-12-04T00:50:08.044Z,73559
2016-12-04T00:50:16.792Z,73564
2016-12-04T00:50:25.508Z,73557
2016-12-04T00:50:34.187Z,73561
2016-12-04T00:50:42.878Z,73563
2016-12-04T00:50:51.598Z,73561
2016-12-04T00:51:00.296Z,73560
2016-12-04T00:51:08.995Z,73561
2016-12-04T00:51:17.724Z,73561
2016-12-04T00:51:26.436Z,73560
2016-12-04T00:51:35.173Z,73561
2016-12-04T00:51:43.883Z,73558
2016-12-04T00:51:52.572Z,73561
2016-12-04T00:52:01.313Z,73559
2016-12-04T00:52:10.275Z,73560
2016-12-04T00:52:19.013Z,73559
2016-12-04T00:52:27.737Z,73558
2016-12-04T00:52:36.463Z,73559
2016-12-04T00:52:45.177Z,73559
2016-12-04T00:52:53.899Z,73558
2016-12-04T00:53:02.626Z,73558
2016-12-04T00:53:11.364Z,73558
2016-12-04T00:53:20.077Z,73558
2016-12-04T00:53:28.779Z,73557
2016-12-04T00:53:37.529Z,73563
2016-12-04T00:53:46.295Z,73560
2016-12-04T00:53:55.009Z,73559
2016-12-04T00:54:03.714Z,73559
2016-12-04T00:54:12.427Z,73558
2016-12-04T00:54:21.152Z,73562
2016-12-04T00:54:29.869Z,73560
2016-12-04T00:54:38.590Z,73558
2016-12-04T00:54:47.340Z,73561
2016-12-04T00:54:56.061Z,73557
2016-12-04T00:55:04.767Z,73557
2016-12-04T00:55:13.514Z,73558
2016-12-04T00:55:22.230Z,73563
2016-12-04T00:55:30.919Z,73560
2016-12-04T00:55:39.637Z,73562
2016-12-04T00:55:48.358Z,73562
2016-12-04T00:55:57.076Z,73556
2016-12-04T00:56:05.776Z,73561
2016-12-04T00:56:14.470Z,73560
2016-12-04T00:56:23.209Z,73557
2016-12-04T00:56:31.908Z,73564
2016-12-04T00:56:40.620Z,73557
2016-12-04T00:56:49.335Z,73559
2016-12-04T00:56:58.055Z,73559
2016-12-04T00:57:06.742Z,73562
2016-12-04T00:57:15.479Z,73560
2016-12-04T00:57:24.183Z,73563
2016-12-04T00:57:32.896Z,73560
2016-12-04T00:57:41.573Z,73557
2016-12-04T00:57:50.299Z,73557
2016-12-04T00:57:58.990Z,73557
2016-12-04T00:58:07.733Z,73560
2016-12-04T00:58:16.494Z,73564
2016-12-04T00:58:25.219Z,73556
2016-12-04T00:58:33.912Z,73563
2016-12-04T00:58:42.668Z,73563
2016-12-04T00:58:51.336Z,73563
2016-12-04T00:59:00.060Z,73559
2016-12-04T00:59:08.759Z,73559
2016-12-04T00:59:17.444Z,73565
2016-12-04T00:59:26.129Z,73562
2016-12-04T00:59:34.838Z,73564
2016-12-04T00:59:43.598Z,73562
2016-12-04T00:59:52.329Z,73562
2016-12-04T01:00:01.033Z,73564
2016-12-04T01:00:09.711Z,73562
2016-12-04T01:00:18.463Z,73560
2016-12-04T01:00:27.190Z,73558
2016-12-04T01:00:35.935Z,73560
2016-12-04T01:00:44.641Z,73562
2016-12-04T01:00:53.361Z,73561
2016-12-04T01:01:02.083Z,73564
2016-12-04T01:01:10.837Z,73563
2016-12-04T01:01:19.559Z,73557
2016-12-04T01:01:28.284Z,73558
2016-12-04T01:01:37.025Z,73558
2016-12-04T01:01:45.726Z,73559
2016-12-04T01:01:54.414Z,73560
2016-12-04T01:02:03.139Z,73560
2016-12-04T01:02:11.884Z,73558
2016-12-04T01:02:20.618Z,73556
2016-12-04T01:02:29.331Z,73556
2016-12-04T01:02:38.029Z,73560
2016-12-04T01:02:46.730Z,73555
2016-12-04T01:02:55.418Z,73562
2016-12-04T01:03:04.107Z,73556
2016-12-04T01:03:12.870Z,73555
2016-12-04T01:03:21.573Z,73557
2016-12-04T01:03:30.265Z,73557
2016-12-04T01:03:38.990Z,73559
2016-12-04T01:03:47.672Z,73562
2016-12-04T01:03:56.394Z,73560
2016-12-04T01:04:05.121Z,73556
2016-12-04T01:04:13.802Z,73558
2016-12-04T01:04:22.505Z,73556
2016-12-04T01:04:31.235Z,73556
2016-12-04T01:04:39.977Z,73558
2016-12-04T01:04:48.727Z,73567
2016-12-04T01:04:57.409Z,73559
2016-12-04T01:05:06.147Z,73558
2016-12-04T01:05:14.860Z,73558
2016-12-04T01:05:23.594Z,73556
2016-12-04T01:05:32.340Z,73561
2016-12-04T01:05:41.059Z,73557
2016-12-04T01:05:49.767Z,73566
2016-12-04T01:05:58.489Z,73562
2016-12-04T01:06:07.209Z,73558
2016-12-04T01:06:15.942Z,73559
2016-12-04T01:06:24.646Z,73561
2016-12-04T01:06:33.429Z,73557
2016-12-04T01:06:42.146Z,73565
2016-12-04T01:06:50.875Z,73561
2016-12-04T01:06:59.590Z,73567
2016-12-04T01:07:08.328Z,73567
2016-12-04T01:07:17.063Z,73564
2016-12-04T01:07:25.774Z,73559
2016-12-04T01:07:34.540Z,73559
2016-12-04T01:07:43.555Z,73561
2016-12-04T01:07:52.284Z,73564
2016-12-04T01:08:01.022Z,73564
2016-12-04T01:08:09.705Z,73563
2016-12-04T01:08:18.420Z,73565
2016-12-04T01:08:27.127Z,73567
2016-12-04T01:08:35.872Z,73565
2016-12-04T01:08:44.585Z,73564
2016-12-04T01:08:53.309Z,73564
2016-12-04T01:09:01.972Z,73561
2016-12-04T01:09:10.686Z,73565
2016-12-04T01:09:19.454Z,73561
2016-12-04T01:09:28.116Z,73563
2016-12-04T01:09:36.842Z,73565
2016-12-04T01:09:45.822Z,73563
2016-12-04T01:09:54.567Z,73572
2016-12-04T01:10:03.562Z,73568
2016-12-04T01:10:12.266Z,73569
2016-12-04T01:10:20.960Z,73570
2016-12-04T01:10:29.677Z,73566
2016-12-04T01:10:38.427Z,73568
2016-12-04T01:10:47.112Z,73566
2016-12-04T01:10:55.829Z,73565
2016-12-04T01:11:04.519Z,73567
2016-12-04T01:11:13.293Z,73565
2016-12-04T01:11:22.053Z,73565
2016-12-04T01:11:30.757Z,73565
2016-12-04T01:11:39.464Z,73566
2016-12-04T01:11:48.149Z,73569
2016-12-04T01:11:56.895Z,73569
2016-12-04T01:12:05.609Z,73567
2016-12-04T01:12:14.315Z,73570
2016-12-04T01:12:23.037Z,73565
2016-12-04T01:12:31.759Z,73565
2016-12-04T01:12:40.469Z,73566
2016-12-04T01:12:49.195Z,73571
2016-12-04T01:12:57.950Z,73568
2016-12-04T01:13:06.657Z,73564
2016-12-04T01:13:15.366Z,73569
2016-12-04T01:13:24.064Z,73566
2016-12-04T01:13:32.745Z,73563
2016-12-04T01:13:41.497Z,73572
2016-12-04T01:13:50.246Z,73569
2016-12-04T01:13:59.013Z,73566
2016-12-04T01:14:07.706Z,73572
2016-12-04T01:14:16.414Z,73569
2016-12-04T01:14:25.116Z,73567
2016-12-04T01:14:33.823Z,73565
2016-12-04T01:14:42.537Z,73568
2016-12-04T01:14:51.284Z,73571
2016-12-04T01:14:59.965Z,73566
2016-12-04T01:15:08.713Z,73570
2016-12-04T01:15:17.463Z,73568
2016-12-04T01:15:26.215Z,73570
2016-12-04T01:15:34.929Z,73565
2016-12-04T01:15:43.631Z,73565
2016-12-04T01:15:52.651Z,73572
2016-12-04T01:16:01.381Z,73574
2016-12-04T01:16:10.120Z,73569
2016-12-04T01:16:18.812Z,73572
2016-12-04T01:16:27.514Z,73572
2016-12-04T01:16:36.255Z,73572
2016-12-04T01:16:44.956Z,73571
2016-12-04T01:16:53.662Z,73571
2016-12-04T01:17:02.326Z,73570
2016-12-04T01:17:11.031Z,73578
2016-12-04T01:17:19.724Z,73571
2016-12-04T01:17:28.425Z,73568
2016-12-04T01:17:37.109Z,73566
2016-12-04T01:17:45.882Z,73571
2016-12-04T01:17:54.625Z,73571
2016-12-04T01:18:03.316Z,73571
2016-12-04T01:18:12.066Z,73575
2016-12-04T01:18:20.746Z,73572
2016-12-04T01:18:29.449Z,73571
2016-12-04T01:18:38.160Z,73570
2016-12-04T01:18:46.902Z,73569
2016-12-04T01:18:55.632Z,73565
2016-12-04T01:19:04.412Z,73566
2016-12-04T01:19:13.108Z,73574
2016-12-04T01:19:21.822Z,73574
2016-12-04T01:19:30.569Z,73574
2016-12-04T01:19:39.309Z,73572
2016-12-04T01:19:48.003Z,73572
2016-12-04T01:19:56.698Z,73571
2016-12-04T01:20:05.432Z,73573
2016-12-04T01:20:14.189Z,73571
2016-12-04T01:20:22.918Z,73578
2016-12-04T01:20:31.635Z,73574
2016-12-04T01:20:40.329Z,73573
2016-12-04T01:20:49.047Z,73573
2016-12-04T01:20:57.759Z,73574
2016-12-04T01:21:06.528Z,73576
2016-12-04T01:21:15.231Z,73574
2016-12-04T01:21:23.957Z,73573
2016-12-04T01:21:32.649Z,73577
2016-12-04T01:21:41.335Z,73577
2016-12-04T01:21:50.060Z,73579
2016-12-04T01:21:58.767Z,73578
2016-12-04T01:22:07.461Z,73578
2016-12-04T01:22:16.183Z,73582
2016-12-04T01:22:24.884Z,73582
2016-12-04T01:22:33.572Z,73581
2016-12-04T01:22:42.273Z,73583
2016-12-04T01:22:50.955Z,73578
2016-12-04T01:22:59.670Z,73578
2016-12-04T01:23:08.349Z,73579
2016-12-04T01:23:17.078Z,73579
2016-12-04T01:23:25.793Z,73575
2016-12-04T01:23:34.485Z,73575
2016-12-04T01:23:43.231Z,73576
2016-12-04T01:23:51.934Z,73575
2016-12-04T01:24:00.654Z,73578
2016-12-04T01:24:09.398Z,73576
2016-12-04T01:24:18.133Z,73578
2016-12-04T01:24:26.877Z,73578
2016-12-04T01:24:35.570Z,73572
2016-12-04T01:24:44.242Z,73572
2016-12-04T01:24:52.941Z,73576
2016-12-04T01:25:01.651Z,73577
2016-12-04T01:25:10.637Z,73575
2016-12-04T01:25:19.400Z,73574
2016-12-04T01:25:28.139Z,73575
2016-12-04T01:25:36.849Z,73575
2016-12-04T01:25:45.553Z,73577
2016-12-04T01:25:54.270Z,73575
2016-12-04T01:26:02.984Z,73574
2016-12-04T01:26:11.688Z,73577
2016-12-04T01:26:20.376Z,73576
2016-12-04T01:26:29.067Z,73572
2016-12-04T01:26:37.766Z,73573
2016-12-04T01:26:46.492Z,73575
2016-12-04T01:26:55.154Z,73577
2016-12-04T01:27:03.863Z,73581
2016-12-04T01:27:12.582Z,73576
2016-12-04T01:27:21.322Z,73579
2016-12-04T01:27:30.036Z,73580
2016-12-04T01:27:38.750Z,73576
2016-12-04T01:27:47.481Z,73580
2016-12-04T01:27:56.208Z,73581
2016-12-04T01:28:04.914Z,73576
2016-12-04T01:28:13.618Z,73578
2016-12-04T01:28:22.343Z,73582
2016-12-04T01:28:31.043Z,73580
2016-12-04T01:28:39.738Z,73575
2016-12-04T01:28:48.445Z,73580
2016-12-04T01:28:57.154Z,73579
2016-12-04T01:29:05.876Z,73579
2016-12-04T01:29:14.598Z,73576
2016-12-04T01:29:23.346Z,73577
2016-12-04T01:29:32.046Z,73579
2016-12-04T01:29:40.727Z,73574
2016-12-04T01:29:49.439Z,73578
2016-12-04T01:29:58.173Z,73582
2016-12-04T01:30:06.864Z,73579
2016-12-04T01:30:15.591Z,73574
2016-12-04T01:30:24.312Z,73576
2016-12-04T01:30:33.036Z,73576
2016-12-04T01:30:41.720Z,73576
2016-12-04T01:30:50.449Z,73579
2016-12-04T01:30:59.154Z,73575
2016-12-04T01:31:07.854Z,73575
2016-12-04T01:31:16.566Z,73574
2016-12-04T01:31:25.309Z,73577
2016-12-04T01:31:34.017Z,73577
2016-12-04T01:31:42.780Z,73582
2016-12-04T01:31:51.493Z,73571
2016-12-04T01:32:00.173Z,73576
2016-12-04T01:32:08.888Z,73578
2016-12-04T01:32:17.594Z,73580
2016-12-04T01:32:26.285Z,73578
2016-12-04T01:32:35.004Z,73578
2016-12-04T01:32:43.673Z,73581
2016-12-04T01:32:52.402Z,73582
2016-12-04T01:33:01.127Z,73578
2016-12-04T01:33:09.842Z,73577
2016-12-04T01:33:18.566Z,73577
2016-12-04T01:33:27.290Z,73578
2016-12-04T01:33:35.994Z,73581
2016-12-04T01:33:44.699Z,73584
2016-12-04T01:33:53.423Z,73579
2016-12-04T01:34:02.134Z,73578
2016-12-04T01:34:10.883Z,73580
2016-12-04T01:34:19.576Z,73582
2016-12-04T01:34:28.311Z,73580
2016-12-04T01:34:37.060Z,73581
2016-12-04T01:34:45.741Z,73577
2016-12-04T01:34:54.462Z,73577
2016-12-04T01:35:03.218Z,73580
2016-12-04T01:35:11.923Z,73577
2016-12-04T01:35:20.643Z,73582
2016-12-04T01:35:29.366Z,73582
2016-12-04T01:35:38.080Z,73580
2016-12-04T01:35:46.821Z,73581
2016-12-04T01:35:55.537Z,73583
2016-12-04T01:36:04.298Z,73578
2016-12-04T01:36:13.016Z,73579
2016-12-04T01:36:21.724Z,73582
2016-12-04T01:36:30.452Z,73580
2016-12-04T01:36:39.200Z,73581
2016-12-04T01:36:47.922Z,73578
2016-12-04T01:36:56.661Z,73579
2016-12-04T01:37:05.358Z,73579
2016-12-04T01:37:14.078Z,73582
2016-12-04T01:37:22.806Z,73584
2016-12-04T01:37:31.553Z,73580
2016-12-04T01:37:40.247Z,73582
2016-12-04T01:37:48.979Z,73583
2016-12-04T01:37:57.735Z,73582
2016-12-04T01:38:06.470Z,73580
2016-12-04T01:38:15.172Z,73580
2016-12-04T01:38:23.879Z,73582
2016-12-04T01:38:32.590Z,73579
2016-12-04T01:38:41.309Z,73582
2016-12-04T01:38:50.012Z,73579
2016-12-04T01:38:58.701Z,73576
2016-12-04T01:39:07.429Z,73581
2016-12-04T01:39:16.150Z,73576
2016-12-04T01:39:24.857Z,73581
2016-12-04T01:39:33.558Z,73576
2016-12-04T01:39:42.285Z,73576
2016-12-04T01:39:51.315Z,73584
2016-12-04T01:40:00.075Z,73574
2016-12-04T01:40:08.787Z,73580
2016-12-04T01:40:17.533Z,73578
2016-12-04T01:40:26.276Z,73580
2016-12-04T01:40:34.939Z,73579
2016-12-04T01:40:43.638Z,73580
2016-12-04T01:40:52.333Z,73577
2016-12-04T01:41:01.020Z,73576
2016-12-04T01:41:10.015Z,73580
2016-12-04T01:41:18.733Z,73581
2016-12-04T01:41:27.457Z,73575
2016-12-04T01:41:36.136Z,73578
2016-12-04T01:41:44.864Z,73581
2016-12-04T01:41:53.604Z,73578
2016-12-04T01:42:02.337Z,73581
2016-12-04T01:42:11.058Z,73578
2016-12-04T01:42:19.746Z,73579
2016-12-04T01:42:28.473Z,73580
2016-12-04T01:42:37.213Z,73579
2016-12-04T01:42:45.914Z,73577
2016-12-04T01:42:54.645Z,73578
2016-12-04T01:43:03.370Z,73578
2016-12-04T01:43:12.074Z,73575
2016-12-04T01:43:20.782Z,73578
2016-12-04T01:43:29.525Z,73577
2016-12-04T01:43:38.260Z,73579
2016-12-04T01:43:46.979Z,73582
2016-12-04T01:43:55.687Z,73576
2016-12-04T01:44:04.394Z,73578
2016-12-04T01:44:13.077Z,73574
2016-12-04T01:44:21.799Z,73582
2016-12-04T01:44:30.522Z,73579
2016-12-04T01:44:39.260Z,73581
2016-12-04T01:44:47.974Z,73576
2016-12-04T01:44:56.935Z,73580
2016-12-04T01:45:05.621Z,73578
2016-12-04T01:45:14.307Z,73583
2016-12-04T01:45:22.993Z,73577
2016-12-04T01:45:31.697Z,73579
2016-12-04T01:45:40.398Z,73577
2016-12-04T01:45:49.101Z,73576
2016-12-04T01:45:57.802Z,73581
2016-12-04T01:46:06.812Z,73581
2016-12-04T01:46:15.568Z,73578
2016-12-04T01:46:24.284Z,73580
2016-12-04T01:46:33.004Z,73574
2016-12-04T01:46:41.723Z,73574
2016-12-04T01:46:50.430Z,73580
2016-12-04T01:46:59.165Z,73582
2016-12-04T01:47:07.882Z,73581
2016-12-04T01:47:16.623Z,73575
2016-12-04T01:47:25.338Z,73576
2016-12-04T01:47:34.017Z,73580
2016-12-04T01:47:42.776Z,73582
2016-12-04T01:47:51.468Z,73579
2016-12-04T01:48:00.488Z,73579
2016-12-04T01:48:09.211Z,73581
2016-12-04T01:48:17.951Z,73582
2016-12-04T01:48:26.647Z,73580
2016-12-04T01:48:35.362Z,73585
2016-12-04T01:48:44.037Z,73582
2016-12-04T01:48:52.736Z,73581
2016-12-04T01:49:01.479Z,73581
2016-12-04T01:49:10.200Z,73577
2016-12-04T01:49:18.900Z,73581
2016-12-04T01:49:27.600Z,73582
2016-12-04T01:49:36.258Z,73583
2016-12-04T01:49:44.969Z,73580
2016-12-04T01:49:53.707Z,73572
2016-12-04T01:50:02.433Z,73579
2016-12-04T01:50:11.137Z,73583
2016-12-04T01:50:19.813Z,73583
2016-12-04T01:50:28.474Z,73582
2016-12-04T01:50:37.211Z,73581
2016-12-04T01:50:45.946Z,73578
2016-12-04T01:50:54.629Z,73582
2016-12-04T01:51:03.314Z,73584
2016-12-04T01:51:12.036Z,73580
2016-12-04T01:51:20.747Z,73581
2016-12-04T01:51:29.500Z,73585
2016-12-04T01:51:38.217Z,73582
2016-12-04T01:51:46.918Z,73580
2016-12-04T01:51:55.587Z,73579
2016-12-04T01:52:04.323Z,73583
2016-12-04T01:52:13.059Z,73582
2016-12-04T01:52:21.785Z,73587